EW6261 Weather Reports


Display with metric or nautical units.
time (UTC)temp
F
wind
direction
speed
MPH
gust
MPH
rain 1hr
in
rain 24hr
in
rain mn
in
humidity
%
barometer
mb
20200329161546 55 89 1.0 4.0 0.00 0.00 0.00 31 1021.6
20200329160008 53 276 0.0 2.0 0.00 0.00 0.00 33 1021.6
20200329154549 52 167 0.0 0.0 0.00 0.00 0.00 34 1021.6
20200329153050 50 132 0.0 1.0 0.00 0.00 0.00 34 1021.5
20200329151551 49 162 1.0 4.0 0.00 0.00 0.00 36 1021.5
20200329150013 48 137 2.0 5.0 0.00 0.00 0.00 38 1021.3
20200329144602 47 150 0.0 2.0 0.00 0.00 0.00 43 1021.5
20200329141536 41 186 0.0 0.0 0.00 0.00 0.00 53 1021.4
20200329140026 41 221 0.0 0.0 0.00 0.00 0.00 51 1021.4
20200329134550 40 219 0.0 2.0 0.00 0.00 0.00 53 1021.4
20200329131505 37 159 0.0 0.0 0.00 0.00 0.00 63 1021.1
20200329130021 37 159 0.0 0.0 0.00 0.00 0.00 63 1021.0
20200329123050 38 143 0.0 1.0 0.00 0.00 0.00 60 1020.8
20200329121527 39 136 0.0 1.0 0.00 0.00 0.00 55 1020.7
20200329114507 42 237 3.0 4.0 0.00 0.00 0.00 46 1020.9
20200329111556 42 231 2.0 4.0 0.00 0.00 0.00 46 1020.6
20200329110020 43 252 3.0 5.0 0.00 0.00 0.00 42 1020.6
20200329104536 42 261 3.0 4.0 0.00 0.00 0.00 46 1020.4
20200329101545 44 247 3.0 4.0 0.00 0.00 0.00 42 1020.5
20200329100024 44 262 2.0 3.0 0.00 0.00 0.00 40 1020.6
20200329094523 45 264 3.0 3.0 0.00 0.00 0.00 40 1020.8
20200329091610 45 279 3.0 4.0 0.00 0.00 0.00 39 1020.7
20200329090040 44 277 2.0 4.0 0.00 0.00 0.00 40 1020.7
20200329084534 44 271 2.0 4.0 0.00 0.00 0.00 41 1021.0
20200329081550 43 264 3.0 5.0 0.00 0.00 0.00 43 1020.9
20200329080011 43 270 2.0 3.0 0.00 0.00 0.00 44 1021.1
20200329074523 43 269 1.0 3.0 0.00 0.00 0.00 44 1021.2
20200329073010 43 241 1.0 2.0 0.00 0.00 0.00 44 1021.2
20200329071538 44 258 2.0 5.0 0.00 0.00 0.00 42 1021.3
20200329070015 44 250 3.0 4.0 0.00 0.00 0.00 43 1021.5
20200329064506 46 238 2.0 4.0 0.00 0.00 0.00 39 1021.6
20200329061522 48 276 1.0 4.0 0.00 0.00 0.00 35 1022.0
20200329060028 46 279 3.0 4.0 0.00 0.00 0.00 35 1022.1
20200329054523 48 270 2.0 4.0 0.00 0.00 0.00 33 1021.9
20200329053007 47 277 3.0 4.0 0.00 0.00 0.00 34 1021.8
20200329051518 48 292 3.0 4.0 0.00 0.00 0.00 32 1021.7
20200329044517 48 332 0.0 2.0 0.00 0.00 0.00 31 1022.1
20200329041513 48 31 3.0 4.0 0.00 0.00 0.00 32 1022.0
20200329034539 50 269 1.0 3.0 0.00 0.00 0.00 29 1021.9
20200329033026 51 283 0.0 4.0 0.00 0.00 0.00 29 1021.8
20200329031555 52 293 3.0 6.0 0.00 0.00 0.00 28 1021.6
20200329030046 52 298 3.0 7.0 0.00 0.00 0.00 30 1021.7
20200329024510 53 276 3.0 5.0 0.00 0.00 0.00 29 1021.6
20200329021527 54 290 2.0 5.0 0.00 0.00 0.00 29 1021.4
20200329020009 57 230 2.0 4.0 0.00 0.00 0.00 23 1021.2
20200329014554 58 176 0.0 2.0 0.00 0.00 0.00 21 1021.1
20200329011508 60 91 0.0 3.0 0.00 0.00 0.00 19 1020.8
20200329010057 60 72 1.0 5.0 0.00 0.00 0.00 19 1020.8
20200329004544 61 75 0.0 4.0 0.00 0.00 0.00 19 1020.8
20200329001511 61 338 2.0 6.0 0.00 0.00 0.00 18 1020.8
20200329000006 61 50 3.0 9.0 0.00 0.00 0.00 18 1020.9
20200328234533 62 117 0.0 3.0 0.00 0.00 0.00 18 1020.9
20200328233013 62 152 3.0 7.0 0.00 0.00 0.00 18 1021.0
20200328231515 61 48 3.0 8.0 0.00 0.00 0.00 17 1021.1
20200328230107 61 300 6.0 8.0 0.00 0.00 0.00 18 1021.3
20200328224505 61 288 6.0 10.0 0.00 0.00 0.00 17 1021.4
20200328221552 62 243 1.0 11.0 0.00 0.00 0.00 17 1021.6
20200328220008 60 301 0.0 6.0 0.00 0.00 0.00 19 1021.8
20200328214553 60 47 0.0 5.0 0.00 0.00 0.00 19 1021.8
20200328211538 59 136 1.0 6.0 0.00 0.00 0.00 19 1022.1
20200328210015 58 104 2.0 11.0 0.00 0.00 0.00 19 1022.4
20200328204551 58 288 3.0 7.0 0.00 0.00 0.00 20 1022.4
20200328203007 58 41 4.0 13.0 0.00 0.00 0.00 21 1022.5
20200328201535 57 32 4.0 9.0 0.00 0.00 0.00 22 1022.6
20200328200018 56 336 4.0 12.0 0.00 0.00 0.00 24 1022.8
20200328194522 56 188 2.0 6.0 0.00 0.00 0.00 24 1023.1
20200328193003 56 340 6.0 9.0 0.00 0.00 0.00 25 1023.1
20200328191542 55 145 0.0 7.0 0.00 0.00 0.00 25 1023.3
20200328190007 53 42 3.0 6.0 0.00 0.00 0.00 27 1023.4
20200328184548 52 340 4.0 12.0 0.00 0.00 0.00 28 1023.6
20200328181519 52 26 3.0 8.0 0.00 0.00 0.00 29 1023.7
20200328180009 50 357 5.0 8.0 0.00 0.00 0.00 31 1024.0
20200328174530 50 336 3.0 9.0 0.00 0.00 0.00 32 1024.3
20200328171523 48 39 4.0 9.0 0.00 0.00 0.00 32 1024.4
20200328170033 47 147 2.0 6.0 0.00 0.00 0.00 36 1024.4
20200328164509 47 26 1.0 8.0 0.00 0.00 0.00 36 1024.3
20200328163013 46 357 3.0 8.0 0.00 0.00 0.00 37 1024.6